Terminal Aerodrome Forecast
Issued by NWS

Home | Current Version | Previous Version | Text Only | Print | Product List | Glossary On
Versions: 1 2 3 4 5 6 7 8 9 10 11 12 13 14 15 16 17 18 19 20 21 22 23 24 25 26 27 28 29 30 31 32 33 34 35 36
189
FTUS44 KFWD 222333
TAFFTW
TAF
KFTW 222333Z 2300/2324 34005KT 5SM -DZ BR OVC006
     FM231100 03004KT 2SM SHRA BR VCTS OVC006CB
     FM231500 06004KT 3SM -SHRA BR OVC008=

USA.gov is the U.S. government's official web portal to all federal, state and local government web resources and services.